Aviation Digital Data Service (ADDS)

Output produced by METARs form (1818 UTC 19 August 2019)
found at http://www.aviationweather.gov/metar/data/
 
Forecast for: VVCT (CAN THO , VN)
Text: TAF VVCT 191700Z 1918/2018 24008KT 9999 SCT017
Forecast period: 1800 UTC 19 August 2019 to 1800 UTC 20 August 2019
Forecast type: FROM: standard forecast or significant change
Winds: from the WSW (240 degrees) at 9 MPH (8 knots; 4.1 m/s)
Visibility: 6 or more miles 10+ km)
Ceiling: at least 12,000 feet AGL
Clouds: scattered clouds at 1700 feet AGL
Weather: no significant weather forecast for this period
Text: TEMPO 2005/2011 5000 TSRA BKN015 FEW017CB
Forecast period: 0500 to 1100 UTC 20 August 2019
Forecast type: TEMPORARY: The following changes expected for less than half the time period
Visibility: 3 miles (5 km)
Ceiling: 1500 feet AGL
Clouds: broken clouds at 1500 feet AGL
few clouds at 1700 feet AGL
Weather: TSRA  (rain associated with thunderstorm(s))